sensor_id;sensor_type;location;lat;lon;timestamp;pressure;altitude;pressure_sealevel;temperature;humidity
28267;BME280;15525;45.568;5.448;2022-07-29T00:00:34;97829.72;;;25.76;39.29
28267;BME280;15525;45.568;5.448;2022-07-29T00:03:02;97827.84;;;25.83;39.07
28267;BME280;15525;45.568;5.448;2022-07-29T00:05:27;97808.63;;;25.83;38.75
28267;BME280;15525;45.568;5.448;2022-07-29T00:07:53;97825.16;;;25.87;39.09
28267;BME280;15525;45.568;5.448;2022-07-29T00:10:18;97820.59;;;25.68;39.39
28267;BME280;15525;45.568;5.448;2022-07-29T00:12:44;97832.09;;;25.77;39.20
28267;BME280;15525;45.568;5.448;2022-07-29T00:15:09;97821.06;;;25.74;39.29
28267;BME280;15525;45.568;5.448;2022-07-29T00:17:35;97817.06;;;25.68;39.39
28267;BME280;15525;45.568;5.448;2022-07-29T00:20:00;97813.31;;;25.50;39.80
28267;BME280;15525;45.568;5.448;2022-07-29T00:22:26;97820.38;;;25.51;39.79
28267;BME280;15525;45.568;5.448;2022-07-29T00:24:51;97843.56;;;25.57;39.78
28267;BME280;15525;45.568;5.448;2022-07-29T00:27:17;97846.59;;;25.48;40.11
28267;BME280;15525;45.568;5.448;2022-07-29T00:29:43;97835.50;;;25.41;40.12
28267;BME280;15525;45.568;5.448;2022-07-29T00:32:08;97835.78;;;25.33;40.37
28267;BME280;15525;45.568;5.448;2022-07-29T00:34:34;97839.31;;;25.33;40.52
28267;BME280;15525;45.568;5.448;2022-07-29T00:37:18;97830.19;;;25.52;39.98
28267;BME280;15525;45.568;5.448;2022-07-29T00:39:43;97815.31;;;25.53;39.71
28267;BME280;15525;45.568;5.448;2022-07-29T00:42:09;97803.75;;;25.37;39.79
28267;BME280;15525;45.568;5.448;2022-07-29T00:44:39;97809.00;;;25.23;40.58
28267;BME280;15525;45.568;5.448;2022-07-29T00:47:06;97815.31;;;25.27;40.16
28267;BME280;15525;45.568;5.448;2022-07-29T00:49:32;97830.47;;;25.43;40.18
28267;BME280;15525;45.568;5.448;2022-07-29T00:52:01;97823.13;;;25.51;39.68
28267;BME280;15525;45.568;5.448;2022-07-29T00:54:26;97813.88;;;25.62;39.36
28267;BME280;15525;45.568;5.448;2022-07-29T00:56:52;97809.31;;;25.73;39.24
28267;BME280;15525;45.568;5.448;2022-07-29T00:59:18;97810.03;;;25.70;39.46
28267;BME280;15525;45.568;5.448;2022-07-29T01:01:43;97784.78;;;25.54;39.74
28267;BME280;15525;45.568;5.448;2022-07-29T01:04:09;97809.50;;;25.58;39.62
28267;BME280;15525;45.568;5.448;2022-07-29T01:06:34;97822.47;;;25.61;39.68
28267;BME280;15525;45.568;5.448;2022-07-29T01:09:01;97819.22;;;25.52;39.96
28267;BME280;15525;45.568;5.448;2022-07-29T01:11:27;97824.78;;;25.59;39.98
28267;BME280;15525;45.568;5.448;2022-07-29T01:13:53;97826.75;;;25.58;39.90
28267;BME280;15525;45.568;5.448;2022-07-29T01:16:28;97821.59;;;25.53;40.38
28267;BME280;15525;45.568;5.448;2022-07-29T01:19:12;97827.66;;;25.40;40.58
28267;BME280;15525;45.568;5.448;2022-07-29T01:21:55;97830.50;;;25.47;40.33
28267;BME280;15525;45.568;5.448;2022-07-29T01:30:03;97830.47;;;24.95;41.20
28267;BME280;15525;45.568;5.448;2022-07-29T01:32:33;97829.78;;;25.01;41.18
28267;BME280;15525;45.568;5.448;2022-07-29T01:35:17;97837.34;;;25.08;41.57
28267;BME280;15525;45.568;5.448;2022-07-29T01:37:48;97815.31;;;25.01;41.04
28267;BME280;15525;45.568;5.448;2022-07-29T01:40:45;97818.63;;;25.13;41.24
28267;BME280;15525;45.568;5.448;2022-07-29T01:43:27;97809.16;;;25.07;41.34
28267;BME280;15525;45.568;5.448;2022-07-29T01:46:00;97814.88;;;24.99;41.15
28267;BME280;15525;45.568;5.448;2022-07-29T01:50:57;97816.44;;;24.74;41.77
28267;BME280;15525;45.568;5.448;2022-07-29T01:53:31;97789.47;;;24.53;41.72
28267;BME280;15525;45.568;5.448;2022-07-29T01:55:59;97799.28;;;24.77;41.31
28267;BME280;15525;45.568;5.448;2022-07-29T01:58:28;97797.38;;;24.81;41.18
28267;BME280;15525;45.568;5.448;2022-07-29T02:00:57;97791.22;;;24.87;40.85
28267;BME280;15525;45.568;5.448;2022-07-29T02:03:24;97800.66;;;24.90;41.03
28267;BME280;15525;45.568;5.448;2022-07-29T02:05:52;97801.50;;;24.94;41.10
28267;BME280;15525;45.568;5.448;2022-07-29T02:08:18;97805.34;;;24.89;40.80
28267;BME280;15525;45.568;5.448;2022-07-29T02:10:45;97817.22;;;24.97;41.16
28267;BME280;15525;45.568;5.448;2022-07-29T02:13:13;97810.75;;;24.86;41.33
28267;BME280;15525;45.568;5.448;2022-07-29T02:15:41;97812.69;;;24.82;41.33
28267;BME280;15525;45.568;5.448;2022-07-29T02:18:18;97804.56;;;24.89;41.32
28267;BME280;15525;45.568;5.448;2022-07-29T02:20:48;97790.69;;;24.78;40.94
28267;BME280;15525;45.568;5.448;2022-07-29T02:23:16;97805.19;;;24.79;41.08
28267;BME280;15525;45.568;5.448;2022-07-29T02:25:43;97806.34;;;24.78;41.08
28267;BME280;15525;45.568;5.448;2022-07-29T02:28:09;97802.81;;;24.77;41.27
28267;BME280;15525;45.568;5.448;2022-07-29T02:30:39;97802.25;;;24.68;41.39
28267;BME280;15525;45.568;5.448;2022-07-29T02:33:08;97787.38;;;24.66;41.89
28267;BME280;15525;45.568;5.448;2022-07-29T02:35:35;97786.88;;;24.60;41.90
28267;BME280;15525;45.568;5.448;2022-07-29T02:38:02;97787.50;;;24.54;41.89
28267;BME280;15525;45.568;5.448;2022-07-29T02:40:48;97798.00;;;24.48;42.41
28267;BME280;15525;45.568;5.448;2022-07-29T02:43:17;97817.75;;;24.38;42.37
28267;BME280;15525;45.568;5.448;2022-07-29T02:45:44;97810.06;;;24.25;42.57
28267;BME280;15525;45.568;5.448;2022-07-29T02:48:15;97807.94;;;24.15;42.50
28267;BME280;15525;45.568;5.448;2022-07-29T02:50:49;97811.34;;;24.31;42.47
28267;BME280;15525;45.568;5.448;2022-07-29T02:53:22;97802.38;;;24.30;42.74
28267;BME280;15525;45.568;5.448;2022-07-29T02:55:59;97804.59;;;24.25;42.86
28267;BME280;15525;45.568;5.448;2022-07-29T02:58:27;97812.50;;;24.30;42.68
28267;BME280;15525;45.568;5.448;2022-07-29T03:00:56;97807.63;;;24.20;43.09
28267;BME280;15525;45.568;5.448;2022-07-29T03:03:25;97803.13;;;24.08;43.26
28267;BME280;15525;45.568;5.448;2022-07-29T03:05:54;97815.84;;;24.20;43.20
28267;BME280;15525;45.568;5.448;2022-07-29T03:08:20;97804.00;;;24.12;43.28
28267;BME280;15525;45.568;5.448;2022-07-29T03:10:47;97799.59;;;24.08;43.26
28267;BME280;15525;45.568;5.448;2022-07-29T03:13:14;97799.59;;;24.08;43.30
28267;BME280;15525;45.568;5.448;2022-07-29T03:15:42;97806.78;;;24.16;43.13
28267;BME280;15525;45.568;5.448;2022-07-29T03:18:09;97807.22;;;24.18;43.03
28267;BME280;15525;45.568;5.448;2022-07-29T03:20:37;97817.75;;;23.97;43.57
28267;BME280;15525;45.568;5.448;2022-07-29T03:23:02;97813.84;;;23.79;43.96
28267;BME280;15525;45.568;5.448;2022-07-29T03:25:28;97833.03;;;23.63;44.43
28267;BME280;15525;45.568;5.448;2022-07-29T03:27:53;97815.06;;;23.62;44.36
28267;BME280;15525;45.568;5.448;2022-07-29T03:30:19;97829.03;;;23.76;44.01
28267;BME280;15525;45.568;5.448;2022-07-29T03:32:44;97835.63;;;23.91;43.72
28267;BME280;15525;45.568;5.448;2022-07-29T03:35:10;97830.63;;;23.96;43.53
28267;BME280;15525;45.568;5.448;2022-07-29T03:37:35;97818.84;;;23.92;43.50
28267;BME280;15525;45.568;5.448;2022-07-29T03:40:03;97828.34;;;23.98;43.40
28267;BME280;15525;45.568;5.448;2022-07-29T03:42:31;97822.06;;;23.98;43.53
28267;BME280;15525;45.568;5.448;2022-07-29T03:45:05;97813.72;;;23.91;43.70
28267;BME280;15525;45.568;5.448;2022-07-29T03:47:33;97827.81;;;23.93;43.54
28267;BME280;15525;45.568;5.448;2022-07-29T03:50:02;97836.03;;;23.93;43.80
28267;BME280;15525;45.568;5.448;2022-07-29T03:52:30;97846.13;;;23.73;44.19
28267;BME280;15525;45.568;5.448;2022-07-29T03:54:55;97838.13;;;23.46;44.51
28267;BME280;15525;45.568;5.448;2022-07-29T03:57:23;97854.56;;;23.65;44.53
28267;BME280;15525;45.568;5.448;2022-07-29T03:59:51;97834.13;;;23.59;44.50
28267;BME280;15525;45.568;5.448;2022-07-29T04:02:17;97851.25;;;23.75;44.20
28267;BME280;15525;45.568;5.448;2022-07-29T04:04:42;97857.00;;;23.70;44.18
28267;BME280;15525;45.568;5.448;2022-07-29T04:07:12;97851.81;;;23.65;44.37
28267;BME280;15525;45.568;5.448;2022-07-29T04:09:38;97854.28;;;23.70;44.03
28267;BME280;15525;45.568;5.448;2022-07-29T04:12:03;97853.75;;;23.64;44.08
28267;BME280;15525;45.568;5.448;2022-07-29T04:14:31;97877.09;;;23.77;44.18
28267;BME280;15525;45.568;5.448;2022-07-29T04:16:57;97859.44;;;23.75;44.28
28267;BME280;15525;45.568;5.448;2022-07-29T04:19:22;97863.41;;;23.77;44.17
28267;BME280;15525;45.568;5.448;2022-07-29T04:21:47;97870.97;;;23.84;44.31
28267;BME280;15525;45.568;5.448;2022-07-29T04:24:13;97883.75;;;23.95;43.84
28267;BME280;15525;45.568;5.448;2022-07-29T04:26:38;97881.13;;;23.83;44.43
28267;BME280;15525;45.568;5.448;2022-07-29T04:29:04;97883.63;;;23.73;44.32
28267;BME280;15525;45.568;5.448;2022-07-29T04:31:29;97873.44;;;23.54;44.54
28267;BME280;15525;45.568;5.448;2022-07-29T04:33:55;97884.25;;;23.47;44.96
28267;BME280;15525;45.568;5.448;2022-07-29T04:36:20;97895.94;;;23.48;45.13
28267;BME280;15525;45.568;5.448;2022-07-29T04:38:45;97894.69;;;23.61;44.68
28267;BME280;15525;45.568;5.448;2022-07-29T04:41:11;97894.66;;;23.76;44.31
28267;BME280;15525;45.568;5.448;2022-07-29T04:43:36;97890.91;;;23.84;44.34
28267;BME280;15525;45.568;5.448;2022-07-29T04:46:03;97904.13;;;23.98;44.34
28267;BME280;15525;45.568;5.448;2022-07-29T04:48:28;97900.00;;;23.88;44.53
28267;BME280;15525;45.568;5.448;2022-07-29T04:50:54;97904.47;;;23.96;44.42
28267;BME280;15525;45.568;5.448;2022-07-29T04:53:19;97887.59;;;23.75;44.62
28267;BME280;15525;45.568;5.448;2022-07-29T04:55:45;97887.84;;;23.86;44.52
28267;BME280;15525;45.568;5.448;2022-07-29T04:58:11;97881.75;;;23.92;44.11
28267;BME280;15525;45.568;5.448;2022-07-29T05:00:37;97902.69;;;24.23;43.73
28267;BME280;15525;45.568;5.448;2022-07-29T05:03:03;97893.38;;;24.27;43.86
28267;BME280;15525;45.568;5.448;2022-07-29T05:05:28;97884.47;;;24.30;43.86
28267;BME280;15525;45.568;5.448;2022-07-29T05:07:54;97892.44;;;24.39;43.78
28267;BME280;15525;45.568;5.448;2022-07-29T05:10:20;97896.47;;;24.45;43.61
28267;BME280;15525;45.568;5.448;2022-07-29T05:12:46;97905.91;;;24.47;43.63
28267;BME280;15525;45.568;5.448;2022-07-29T05:15:11;97882.09;;;24.29;43.81
28267;BME280;15525;45.568;5.448;2022-07-29T05:17:37;97884.97;;;24.17;44.13
28267;BME280;15525;45.568;5.448;2022-07-29T05:20:03;97892.38;;;24.35;43.85
28267;BME280;15525;45.568;5.448;2022-07-29T05:22:28;97893.34;;;24.46;43.40
28267;BME280;15525;45.568;5.448;2022-07-29T05:24:54;97898.16;;;24.53;43.23
28267;BME280;15525;45.568;5.448;2022-07-29T05:27:19;97889.84;;;24.46;43.37
28267;BME280;15525;45.568;5.448;2022-07-29T05:29:45;97913.31;;;24.66;43.29
28267;BME280;15525;45.568;5.448;2022-07-29T05:32:10;97894.28;;;24.73;43.26
28267;BME280;15525;45.568;5.448;2022-07-29T05:34:36;97880.44;;;24.66;43.06
28267;BME280;15525;45.568;5.448;2022-07-29T05:37:01;97907.53;;;24.71;43.52
28267;BME280;15525;45.568;5.448;2022-07-29T05:39:27;97908.59;;;24.85;43.34
28267;BME280;15525;45.568;5.448;2022-07-29T05:41:52;97909.81;;;24.88;43.21
28267;BME280;15525;45.568;5.448;2022-07-29T05:44:18;97900.41;;;24.89;43.13
28267;BME280;15525;45.568;5.448;2022-07-29T05:46:43;97902.81;;;24.68;43.43
28267;BME280;15525;45.568;5.448;2022-07-29T05:49:08;97923.28;;;24.36;44.47
28267;BME280;15525;45.568;5.448;2022-07-29T05:51:34;97907.56;;;24.33;44.46
28267;BME280;15525;45.568;5.448;2022-07-29T05:53:59;97911.75;;;24.46;44.45
28267;BME280;15525;45.568;5.448;2022-07-29T05:56:25;97916.91;;;24.70;44.37
28267;BME280;15525;45.568;5.448;2022-07-29T05:58:51;97930.69;;;24.96;44.40
28267;BME280;15525;45.568;5.448;2022-07-29T06:01:17;97937.56;;;25.09;44.47
28267;BME280;15525;45.568;5.448;2022-07-29T06:03:43;97934.81;;;24.86;44.94
28267;BME280;15525;45.568;5.448;2022-07-29T06:06:08;97936.38;;;24.87;45.43
28267;BME280;15525;45.568;5.448;2022-07-29T06:08:34;97932.69;;;24.99;45.96
28267;BME280;15525;45.568;5.448;2022-07-29T06:11:01;97942.72;;;24.91;46.39
28267;BME280;15525;45.568;5.448;2022-07-29T06:13:27;97945.25;;;25.00;47.40
28267;BME280;15525;45.568;5.448;2022-07-29T06:15:52;97948.75;;;24.78;48.06
28267;BME280;15525;45.568;5.448;2022-07-29T06:18:17;97947.22;;;24.80;48.22
28267;BME280;15525;45.568;5.448;2022-07-29T06:20:43;97943.28;;;24.78;48.37
28267;BME280;15525;45.568;5.448;2022-07-29T06:23:08;97951.59;;;24.85;48.15
28267;BME280;15525;45.568;5.448;2022-07-29T06:25:35;97948.44;;;25.05;47.74
28267;BME280;15525;45.568;5.448;2022-07-29T06:28:02;97949.25;;;25.28;48.24
28267;BME280;15525;45.568;5.448;2022-07-29T06:30:27;97959.25;;;25.40;48.79
28267;BME280;15525;45.568;5.448;2022-07-29T06:32:54;97959.13;;;25.33;49.39
28267;BME280;15525;45.568;5.448;2022-07-29T06:35:20;97971.81;;;25.22;50.01
28267;BME280;15525;45.568;5.448;2022-07-29T06:37:45;97985.16;;;25.23;49.76
28267;BME280;15525;45.568;5.448;2022-07-29T06:40:11;97998.09;;;25.23;49.73
28267;BME280;15525;45.568;5.448;2022-07-29T06:42:56;98002.44;;;24.63;51.12
28267;BME280;15525;45.568;5.448;2022-07-29T06:45:22;98020.47;;;24.30;52.27
28267;BME280;15525;45.568;5.448;2022-07-29T06:47:47;97994.56;;;24.24;52.47
28267;BME280;15525;45.568;5.448;2022-07-29T06:50:14;98006.38;;;24.28;52.11
28267;BME280;15525;45.568;5.448;2022-07-29T06:52:40;98005.38;;;24.36;51.74
28267;BME280;15525;45.568;5.448;2022-07-29T06:55:06;97975.84;;;24.45;51.76
28267;BME280;15525;45.568;5.448;2022-07-29T06:57:32;98002.44;;;24.63;51.78
28267;BME280;15525;45.568;5.448;2022-07-29T06:59:57;97974.16;;;24.78;51.46
28267;BME280;15525;45.568;5.448;2022-07-29T07:02:22;97961.28;;;24.79;51.60
28267;BME280;15525;45.568;5.448;2022-07-29T07:04:48;97949.16;;;24.80;52.05
28267;BME280;15525;45.568;5.448;2022-07-29T07:07:14;97965.81;;;24.90;52.49
28267;BME280;15525;45.568;5.448;2022-07-29T07:09:39;97962.59;;;24.47;53.42
28267;BME280;15525;45.568;5.448;2022-07-29T07:12:05;97989.78;;;24.21;54.48
28267;BME280;15525;45.568;5.448;2022-07-29T07:14:30;97988.50;;;24.34;54.26
28267;BME280;15525;45.568;5.448;2022-07-29T07:16:56;97993.91;;;24.30;54.16
28267;BME280;15525;45.568;5.448;2022-07-29T07:19:21;97996.78;;;24.18;54.55
28267;BME280;15525;45.568;5.448;2022-07-29T07:21:47;97983.19;;;24.41;54.14
28267;BME280;15525;45.568;5.448;2022-07-29T07:24:12;97975.69;;;24.76;53.20
28267;BME280;15525;45.568;5.448;2022-07-29T07:26:37;97968.78;;;24.82;53.18
28267;BME280;15525;45.568;5.448;2022-07-29T07:29:05;97967.22;;;25.03;52.93
28267;BME280;15525;45.568;5.448;2022-07-29T07:31:30;97957.75;;;25.23;52.55
28267;BME280;15525;45.568;5.448;2022-07-29T07:33:56;97960.00;;;25.18;52.56
28267;BME280;15525;45.568;5.448;2022-07-29T07:36:40;97974.31;;;25.08;52.92
28267;BME280;15525;45.568;5.448;2022-07-29T07:39:06;97982.00;;;24.99;53.26
28267;BME280;15525;45.568;5.448;2022-07-29T07:41:31;97980.03;;;24.77;53.56
28267;BME280;15525;45.568;5.448;2022-07-29T07:43:57;97998.16;;;24.47;54.55
28267;BME280;15525;45.568;5.448;2022-07-29T07:46:22;98004.28;;;24.78;53.74
28267;BME280;15525;45.568;5.448;2022-07-29T07:48:48;97978.59;;;25.05;53.07
28267;BME280;15525;45.568;5.448;2022-07-29T07:51:13;97970.06;;;25.29;53.02
28267;BME280;15525;45.568;5.448;2022-07-29T07:53:39;97960.81;;;25.18;53.38
28267;BME280;15525;45.568;5.448;2022-07-29T07:56:04;97964.06;;;24.82;54.27
28267;BME280;15525;45.568;5.448;2022-07-29T07:58:31;97976.13;;;24.78;54.87
28267;BME280;15525;45.568;5.448;2022-07-29T08:00:57;97960.41;;;24.75;54.82
28267;BME280;15525;45.568;5.448;2022-07-29T08:03:22;97978.94;;;24.81;54.38
28267;BME280;15525;45.568;5.448;2022-07-29T08:05:47;97980.91;;;25.03;53.60
28267;BME280;15525;45.568;5.448;2022-07-29T08:08:15;97979.19;;;25.18;52.84
28267;BME280;15525;45.568;5.448;2022-07-29T08:10:41;97975.41;;;25.26;52.42
28267;BME280;15525;45.568;5.448;2022-07-29T08:13:20;97977.06;;;25.08;52.33
28267;BME280;15525;45.568;5.448;2022-07-29T08:15:46;97978.47;;;25.21;52.17
28267;BME280;15525;45.568;5.448;2022-07-29T08:18:12;97970.59;;;25.19;52.36
28267;BME280;15525;45.568;5.448;2022-07-29T08:20:38;97976.31;;;25.30;51.85
28267;BME280;15525;45.568;5.448;2022-07-29T08:23:06;97986.91;;;25.31;51.38
28267;BME280;15525;45.568;5.448;2022-07-29T08:25:35;97983.25;;;25.46;50.72
28267;BME280;15525;45.568;5.448;2022-07-29T08:28:00;97973.47;;;25.49;50.72
28267;BME280;15525;45.568;5.448;2022-07-29T08:30:26;97966.28;;;25.63;50.69
28267;BME280;15525;45.568;5.448;2022-07-29T08:32:51;97964.84;;;25.47;51.37
28267;BME280;15525;45.568;5.448;2022-07-29T08:35:18;97983.00;;;25.10;51.94
28267;BME280;15525;45.568;5.448;2022-07-29T08:37:44;98003.78;;;24.92;51.96
28267;BME280;15525;45.568;5.448;2022-07-29T08:40:10;98015.53;;;24.92;52.02
28267;BME280;15525;45.568;5.448;2022-07-29T08:42:36;98041.13;;;24.81;52.77
28267;BME280;15525;45.568;5.448;2022-07-29T08:45:02;98073.81;;;24.36;54.13
28267;BME280;15525;45.568;5.448;2022-07-29T08:47:28;98089.47;;;23.73;55.97
28267;BME280;15525;45.568;5.448;2022-07-29T08:49:53;98100.28;;;23.39;57.53
28267;BME280;15525;45.568;5.448;2022-07-29T08:52:19;98123.56;;;23.33;58.28
28267;BME280;15525;45.568;5.448;2022-07-29T08:54:45;98117.19;;;23.29;58.15
28267;BME280;15525;45.568;5.448;2022-07-29T08:57:14;98130.59;;;23.34;58.38
28267;BME280;15525;45.568;5.448;2022-07-29T08:59:42;98127.78;;;23.30;58.17
28267;BME280;15525;45.568;5.448;2022-07-29T09:02:19;98143.84;;;23.32;58.58
28267;BME280;15525;45.568;5.448;2022-07-29T09:04:45;98149.91;;;23.25;58.36
28267;BME280;15525;45.568;5.448;2022-07-29T09:07:15;98175.03;;;23.31;58.58
28267;BME280;15525;45.568;5.448;2022-07-29T09:09:41;98178.41;;;23.40;58.57
28267;BME280;15525;45.568;5.448;2022-07-29T09:12:08;98177.91;;;23.50;58.70
28267;BME280;15525;45.568;5.448;2022-07-29T09:14:34;98181.78;;;23.49;58.76
28267;BME280;15525;45.568;5.448;2022-07-29T09:17:00;98194.38;;;23.26;59.71
28267;BME280;15525;45.568;5.448;2022-07-29T09:19:31;98199.63;;;23.31;60.25
28267;BME280;15525;45.568;5.448;2022-07-29T09:21:59;98177.50;;;23.36;59.63
28267;BME280;15525;45.568;5.448;2022-07-29T09:24:44;98199.94;;;23.57;60.37
28267;BME280;15525;45.568;5.448;2022-07-29T09:27:22;98205.41;;;23.57;59.58
28267;BME280;15525;45.568;5.448;2022-07-29T09:30:01;98202.69;;;23.57;59.69
28267;BME280;15525;45.568;5.448;2022-07-29T09:32:27;98209.44;;;23.20;59.84
28267;BME280;15525;45.568;5.448;2022-07-29T09:35:30;98223.00;;;23.44;59.05
28267;BME280;15525;45.568;5.448;2022-07-29T09:37:56;98212.28;;;23.11;59.30
28267;BME280;15525;45.568;5.448;2022-07-29T09:40:24;98203.13;;;22.92;59.02
28267;BME280;15525;45.568;5.448;2022-07-29T09:42:51;98219.09;;;23.29;58.12
28267;BME280;15525;45.568;5.448;2022-07-29T09:45:29;98236.72;;;23.59;57.97
28267;BME280;15525;45.568;5.448;2022-07-29T09:47:55;98244.88;;;23.44;58.14
28267;BME280;15525;45.568;5.448;2022-07-29T09:50:22;98227.09;;;23.10;58.33
28267;BME280;15525;45.568;5.448;2022-07-29T09:53:00;98231.78;;;22.98;58.14
28267;BME280;15525;45.568;5.448;2022-07-29T09:55:25;98236.03;;;22.83;58.43
28267;BME280;15525;45.568;5.448;2022-07-29T09:57:51;98215.91;;;22.64;58.16
28267;BME280;15525;45.568;5.448;2022-07-29T10:00:19;98230.34;;;22.76;58.35
28267;BME280;15525;45.568;5.448;2022-07-29T10:02:46;98240.25;;;22.69;58.25
28267;BME280;15525;45.568;5.448;2022-07-29T10:05:22;98249.47;;;22.64;58.39
28267;BME280;15525;45.568;5.448;2022-07-29T10:07:54;98241.97;;;22.73;58.09
28267;BME280;15525;45.568;5.448;2022-07-29T10:10:24;98238.75;;;22.71;58.24
28267;BME280;15525;45.568;5.448;2022-07-29T10:12:55;98225.22;;;22.87;57.80
28267;BME280;15525;45.568;5.448;2022-07-29T10:15:22;98237.44;;;23.17;57.21
28267;BME280;15525;45.568;5.448;2022-07-29T10:17:49;98230.56;;;23.35;56.72
28267;BME280;15525;45.568;5.448;2022-07-29T10:20:15;98221.81;;;23.57;56.67
28267;BME280;15525;45.568;5.448;2022-07-29T10:22:40;98230.94;;;23.76;56.46
28267;BME280;15525;45.568;5.448;2022-07-29T10:25:08;98226.88;;;23.98;56.13
28267;BME280;15525;45.568;5.448;2022-07-29T10:27:34;98220.16;;;23.95;56.43
28267;BME280;15525;45.568;5.448;2022-07-29T10:30:00;98228.09;;;24.00;56.33
28267;BME280;15525;45.568;5.448;2022-07-29T10:32:32;98242.06;;;24.11;56.13
28267;BME280;15525;45.568;5.448;2022-07-29T10:35:21;98230.41;;;24.14;56.34
28267;BME280;15525;45.568;5.448;2022-07-29T10:38:30;98222.22;;;24.29;56.36
28267;BME280;15525;45.568;5.448;2022-07-29T10:44:13;98218.13;;;24.54;56.06
28267;BME280;15525;45.568;5.448;2022-07-29T10:46:40;98214.44;;;24.62;55.88
28267;BME280;15525;45.568;5.448;2022-07-29T10:49:17;98230.84;;;24.62;56.22
28267;BME280;15525;45.568;5.448;2022-07-29T10:52:05;98221.59;;;24.86;56.63
28267;BME280;15525;45.568;5.448;2022-07-29T11:05:17;98190.72;;;25.04;57.20
28267;BME280;15525;45.568;5.448;2022-07-29T11:08:23;98188.34;;;25.22;57.40
28267;BME280;15525;45.568;5.448;2022-07-29T11:10:49;98188.66;;;25.36;57.08
28267;BME280;15525;45.568;5.448;2022-07-29T11:14:07;98192.53;;;25.16;57.03
28267;BME280;15525;45.568;5.448;2022-07-29T11:19:44;98189.81;;;25.35;56.18
28267;BME280;15525;45.568;5.448;2022-07-29T11:22:10;98179.66;;;25.35;56.13
28267;BME280;15525;45.568;5.448;2022-07-29T11:24:37;98192.97;;;25.56;55.71
28267;BME280;15525;45.568;5.448;2022-07-29T11:27:23;98194.41;;;25.69;56.16
28267;BME280;15525;45.568;5.448;2022-07-29T11:29:58;98197.25;;;25.76;55.90
28267;BME280;15525;45.568;5.448;2022-07-29T11:32:38;98188.44;;;25.86;56.08
28267;BME280;15525;45.568;5.448;2022-07-29T11:37:39;98174.72;;;26.05;55.33
28267;BME280;15525;45.568;5.448;2022-07-29T11:45:21;98177.38;;;26.72;55.11
28267;BME280;15525;45.568;5.448;2022-07-29T11:47:51;98173.09;;;26.75;54.46
28267;BME280;15525;45.568;5.448;2022-07-29T11:52:58;98175.31;;;27.21;54.18
28267;BME280;15525;45.568;5.448;2022-07-29T11:55:25;98173.94;;;27.38;53.82
28267;BME280;15525;45.568;5.448;2022-07-29T11:57:52;98163.59;;;27.61;53.49
28267;BME280;15525;45.568;5.448;2022-07-29T12:00:34;98161.19;;;27.59;54.37
28267;BME280;15525;45.568;5.448;2022-07-29T12:03:02;98169.38;;;27.52;53.79
28267;BME280;15525;45.568;5.448;2022-07-29T12:05:39;98167.97;;;27.69;53.40
28267;BME280;15525;45.568;5.448;2022-07-29T12:08:10;98165.59;;;28.04;52.10
28267;BME280;15525;45.568;5.448;2022-07-29T12:10:36;98168.31;;;28.44;51.65
28267;BME280;15525;45.568;5.448;2022-07-29T12:13:02;98160.22;;;28.72;50.98
28267;BME280;15525;45.568;5.448;2022-07-29T12:15:28;98162.78;;;28.98;50.67
28267;BME280;15525;45.568;5.448;2022-07-29T12:17:53;98160.25;;;29.61;50.00
28267;BME280;15525;45.568;5.448;2022-07-29T12:20:24;98162.69;;;30.01;48.80
28267;BME280;15525;45.568;5.448;2022-07-29T12:22:50;98161.56;;;30.23;48.24
28267;BME280;15525;45.568;5.448;2022-07-29T12:25:15;98158.38;;;30.63;47.55
28267;BME280;15525;45.568;5.448;2022-07-29T12:27:42;98153.63;;;30.50;47.86
28267;BME280;15525;45.568;5.448;2022-07-29T12:30:13;98148.00;;;31.02;46.45
28267;BME280;15525;45.568;5.448;2022-07-29T12:32:42;98148.38;;;31.08;46.56
28267;BME280;15525;45.568;5.448;2022-07-29T12:35:11;98143.63;;;31.15;45.52
28267;BME280;15525;45.568;5.448;2022-07-29T12:37:39;98140.78;;;31.40;45.82
28267;BME280;15525;45.568;5.448;2022-07-29T12:40:07;98150.88;;;31.71;44.49
28267;BME280;15525;45.568;5.448;2022-07-29T12:42:34;98139.78;;;31.74;44.10
28267;BME280;15525;45.568;5.448;2022-07-29T12:45:00;98129.28;;;32.06;43.54
28267;BME280;15525;45.568;5.448;2022-07-29T12:47:25;98145.56;;;32.48;43.47
28267;BME280;15525;45.568;5.448;2022-07-29T12:50:07;98139.84;;;32.66;42.81
28267;BME280;15525;45.568;5.448;2022-07-29T12:52:34;98139.44;;;33.04;42.50
28267;BME280;15525;45.568;5.448;2022-07-29T12:55:00;98126.00;;;32.99;41.88
28267;BME280;15525;45.568;5.448;2022-07-29T12:57:27;98124.19;;;32.86;42.21
28267;BME280;15525;45.568;5.448;2022-07-29T13:00:24;98106.00;;;32.85;40.40
28267;BME280;15525;45.568;5.448;2022-07-29T13:02:57;98124.19;;;32.86;41.83
28267;BME280;15525;45.568;5.448;2022-07-29T13:05:23;98120.09;;;32.97;41.67
28267;BME280;15525;45.568;5.448;2022-07-29T13:07:49;98124.84;;;33.60;41.37
28267;BME280;15525;45.568;5.448;2022-07-29T13:10:20;98100.94;;;33.66;40.92
28267;BME280;15525;45.568;5.448;2022-07-29T13:13:09;98132.25;;;33.70;41.92
28267;BME280;15525;45.568;5.448;2022-07-29T13:15:41;98128.91;;;33.82;39.77
28267;BME280;15525;45.568;5.448;2022-07-29T13:20:52;98134.63;;;34.21;39.23
28267;BME280;15525;45.568;5.448;2022-07-29T13:23:18;98122.88;;;34.37;39.09
28267;BME280;15525;45.568;5.448;2022-07-29T13:25:43;98122.50;;;34.81;38.19
28267;BME280;15525;45.568;5.448;2022-07-29T13:28:08;98110.09;;;34.62;38.12
28267;BME280;15525;45.568;5.448;2022-07-29T13:30:34;98119.03;;;34.50;37.94
28267;BME280;15525;45.568;5.448;2022-07-29T13:33:00;98121.19;;;34.85;37.84
28267;BME280;15525;45.568;5.448;2022-07-29T13:35:25;98129.47;;;34.89;36.59
28267;BME280;15525;45.568;5.448;2022-07-29T13:37:50;98130.75;;;34.84;36.77
28267;BME280;15525;45.568;5.448;2022-07-29T13:40:16;98118.84;;;34.84;36.33
28267;BME280;15525;45.568;5.448;2022-07-29T13:42:42;98121.28;;;34.82;36.13
28267;BME280;15525;45.568;5.448;2022-07-29T13:45:09;98118.00;;;35.06;36.16